sensor_id;sensor_type;location;lat;lon;timestamp;pressure;altitude;pressure_sealevel;temperature;humidity
9059;BME280;4564;42.034;25.834;2023-05-13T00:01:12;100833.44;;;6.52;91.69
9059;BME280;4564;42.034;25.834;2023-05-13T00:03:38;100830.78;;;6.42;91.52
9059;BME280;4564;42.034;25.834;2023-05-13T00:06:05;100825.63;;;6.49;92.56
9059;BME280;4564;42.034;25.834;2023-05-13T00:08:32;100824.03;;;6.56;91.00
9059;BME280;4564;42.034;25.834;2023-05-13T00:10:58;100829.75;;;6.53;91.58
9059;BME280;4564;42.034;25.834;2023-05-13T00:13:25;100808.19;;;6.53;90.96
9059;BME280;4564;42.034;25.834;2023-05-13T00:15:53;100820.09;;;6.50;91.22
9059;BME280;4564;42.034;25.834;2023-05-13T00:18:20;100817.84;;;6.46;91.33
9059;BME280;4564;42.034;25.834;2023-05-13T00:20:46;100818.63;;;6.28;92.39
9059;BME280;4564;42.034;25.834;2023-05-13T00:23:13;100811.53;;;6.27;92.89
9059;BME280;4564;42.034;25.834;2023-05-13T00:25:39;100804.28;;;6.28;93.24
9059;BME280;4564;42.034;25.834;2023-05-13T00:28:08;100811.41;;;6.19;92.64
9059;BME280;4564;42.034;25.834;2023-05-13T00:30:35;100805.19;;;6.19;92.87
9059;BME280;4564;42.034;25.834;2023-05-13T00:33:03;100792.38;;;6.21;92.95
9059;BME280;4564;42.034;25.834;2023-05-13T00:35:31;100801.94;;;6.15;92.18
9059;BME280;4564;42.034;25.834;2023-05-13T00:37:58;100806.47;;;6.05;92.26
9059;BME280;4564;42.034;25.834;2023-05-13T00:40:24;100810.06;;;5.96;92.83
9059;BME280;4564;42.034;25.834;2023-05-13T00:42:51;100807.50;;;5.95;92.58
9059;BME280;4564;42.034;25.834;2023-05-13T00:45:17;100813.16;;;6.01;91.55
9059;BME280;4564;42.034;25.834;2023-05-13T00:47:44;100815.44;;;5.96;92.20
9059;BME280;4564;42.034;25.834;2023-05-13T00:50:12;100816.44;;;5.95;92.54
9059;BME280;4564;42.034;25.834;2023-05-13T00:52:40;100815.16;;;5.99;92.96
9059;BME280;4564;42.034;25.834;2023-05-13T00:55:07;100810.06;;;5.96;93.57
9059;BME280;4564;42.034;25.834;2023-05-13T00:57:34;100819.69;;;5.89;93.46
9059;BME280;4564;42.034;25.834;2023-05-13T01:00:01;100808.91;;;5.89;92.38
9059;BME280;4564;42.034;25.834;2023-05-13T01:02:31;100807.25;;;5.88;92.55
9059;BME280;4564;42.034;25.834;2023-05-13T01:05:02;100815.75;;;5.93;91.57
9059;BME280;4564;42.034;25.834;2023-05-13T01:07:38;100821.25;;;5.92;91.78
9059;BME280;4564;42.034;25.834;2023-05-13T01:10:10;100823.53;;;5.96;91.93
9059;BME280;4564;42.034;25.834;2023-05-13T01:12:39;100813.19;;;5.92;91.55
9059;BME280;4564;42.034;25.834;2023-05-13T01:15:07;100819.41;;;5.92;91.70
9059;BME280;4564;42.034;25.834;2023-05-13T01:17:35;100817.41;;;5.94;91.15
9059;BME280;4564;42.034;25.834;2023-05-13T01:20:03;100826.19;;;5.86;91.30
9059;BME280;4564;42.034;25.834;2023-05-13T01:22:31;100829.22;;;5.93;92.14
9059;BME280;4564;42.034;25.834;2023-05-13T01:24:58;100828.78;;;5.88;92.24
9059;BME280;4564;42.034;25.834;2023-05-13T01:27:24;100829.16;;;5.83;91.32
9059;BME280;4564;42.034;25.834;2023-05-13T01:29:51;100838.69;;;5.68;91.46
9059;BME280;4564;42.034;25.834;2023-05-13T01:32:18;100844.22;;;5.67;91.64
9059;BME280;4564;42.034;25.834;2023-05-13T01:34:45;100854.84;;;5.68;91.63
9059;BME280;4564;42.034;25.834;2023-05-13T01:37:12;100857.81;;;5.65;91.99
9059;BME280;4564;42.034;25.834;2023-05-13T01:39:40;100856.25;;;5.53;92.26
9059;BME280;4564;42.034;25.834;2023-05-13T01:42:07;100849.75;;;5.56;92.25
9059;BME280;4564;42.034;25.834;2023-05-13T01:44:33;100853.84;;;5.60;92.80
9059;BME280;4564;42.034;25.834;2023-05-13T01:47:00;100844.94;;;5.59;93.88
9059;BME280;4564;42.034;25.834;2023-05-13T01:49:27;100856.84;;;5.66;94.52
9059;BME280;4564;42.034;25.834;2023-05-13T01:51:53;100869.56;;;5.64;94.47
9059;BME280;4564;42.034;25.834;2023-05-13T01:54:20;100870.56;;;5.54;94.30
9059;BME280;4564;42.034;25.834;2023-05-13T01:56:48;100876.38;;;5.49;94.59
9059;BME280;4564;42.034;25.834;2023-05-13T01:59:14;100875.09;;;5.53;95.41
9059;BME280;4564;42.034;25.834;2023-05-13T02:01:41;100872.69;;;5.50;95.01
9059;BME280;4564;42.034;25.834;2023-05-13T02:04:09;100881.47;;;5.52;95.14
9059;BME280;4564;42.034;25.834;2023-05-13T02:06:35;100872.97;;;5.47;94.41
9059;BME280;4564;42.034;25.834;2023-05-13T02:09:02;100883.72;;;5.37;95.14
9059;BME280;4564;42.034;25.834;2023-05-13T02:11:29;100887.13;;;5.39;95.83
9059;BME280;4564;42.034;25.834;2023-05-13T02:13:57;100888.13;;;5.38;95.94
9059;BME280;4564;42.034;25.834;2023-05-13T02:16:23;100885.69;;;5.35;95.93
9059;BME280;4564;42.034;25.834;2023-05-13T02:18:50;100880.72;;;5.21;96.19
9059;BME280;4564;42.034;25.834;2023-05-13T02:21:17;100882.56;;;5.30;95.37
9059;BME280;4564;42.034;25.834;2023-05-13T02:23:43;100882.13;;;5.25;95.57
9059;BME280;4564;42.034;25.834;2023-05-13T02:26:10;100881.44;;;5.23;95.88
9059;BME280;4564;42.034;25.834;2023-05-13T02:28:36;100874.91;;;5.26;95.91
9059;BME280;4564;42.034;25.834;2023-05-13T02:31:04;100870.41;;;5.26;95.88
9059;BME280;4564;42.034;25.834;2023-05-13T02:33:31;100875.78;;;5.26;97.07
9059;BME280;4564;42.034;25.834;2023-05-13T02:35:57;100890.22;;;5.25;96.24
9059;BME280;4564;42.034;25.834;2023-05-13T02:38:24;100886.97;;;5.31;96.41
9059;BME280;4564;42.034;25.834;2023-05-13T02:40:50;100882.03;;;5.36;96.45
9059;BME280;4564;42.034;25.834;2023-05-13T02:43:17;100881.03;;;5.37;97.04
9059;BME280;4564;42.034;25.834;2023-05-13T02:45:44;100880.31;;;5.35;96.57
9059;BME280;4564;42.034;25.834;2023-05-13T02:48:12;100876.94;;;5.33;96.05
9059;BME280;4564;42.034;25.834;2023-05-13T02:50:40;100878.91;;;5.31;96.16
9059;BME280;4564;42.034;25.834;2023-05-13T02:53:06;100878.72;;;5.14;96.36
9059;BME280;4564;42.034;25.834;2023-05-13T02:55:33;100880.28;;;5.06;97.07
9059;BME280;4564;42.034;25.834;2023-05-13T02:58:00;100882.00;;;5.27;96.66
9059;BME280;4564;42.034;25.834;2023-05-13T03:00:26;100876.94;;;5.53;95.64
9059;BME280;4564;42.034;25.834;2023-05-13T03:02:53;100878.50;;;5.65;94.89
9059;BME280;4564;42.034;25.834;2023-05-13T03:05:21;100884.59;;;5.86;94.44
9059;BME280;4564;42.034;25.834;2023-05-13T03:07:48;100880.63;;;6.00;93.52
9059;BME280;4564;42.034;25.834;2023-05-13T03:10:15;100895.09;;;6.08;93.01
9059;BME280;4564;42.034;25.834;2023-05-13T03:12:41;100896.50;;;6.22;93.25
9059;BME280;4564;42.034;25.834;2023-05-13T03:15:08;100891.09;;;6.31;92.43
9059;BME280;4564;42.034;25.834;2023-05-13T03:17:35;100895.88;;;6.47;92.61
9059;BME280;4564;42.034;25.834;2023-05-13T03:20:02;100893.28;;;6.55;90.53
9059;BME280;4564;42.034;25.834;2023-05-13T03:22:30;100908.97;;;6.42;90.70
9059;BME280;4564;42.034;25.834;2023-05-13T03:24:57;100908.75;;;6.53;91.11
9059;BME280;4564;42.034;25.834;2023-05-13T03:27:23;100909.75;;;6.62;88.40
9059;BME280;4564;42.034;25.834;2023-05-13T03:29:50;100916.25;;;6.59;88.33
9059;BME280;4564;42.034;25.834;2023-05-13T03:32:17;100925.63;;;6.65;89.94
9059;BME280;4564;42.034;25.834;2023-05-13T03:34:43;100922.91;;;6.74;90.70
9059;BME280;4564;42.034;25.834;2023-05-13T03:37:10;100934.75;;;6.91;91.05
9059;BME280;4564;42.034;25.834;2023-05-13T03:39:40;100937.22;;;6.85;91.29
9059;BME280;4564;42.034;25.834;2023-05-13T03:42:07;100942.16;;;6.89;91.71
9059;BME280;4564;42.034;25.834;2023-05-13T03:44:33;100945.53;;;6.91;91.98
9059;BME280;4564;42.034;25.834;2023-05-13T03:47:00;100954.28;;;6.66;93.00
9059;BME280;4564;42.034;25.834;2023-05-13T03:49:27;100951.53;;;6.29;95.53
9059;BME280;4564;42.034;25.834;2023-05-13T03:51:53;100945.44;;;5.98;97.04
9059;BME280;4564;42.034;25.834;2023-05-13T03:54:20;100941.88;;;6.26;98.07
9059;BME280;4564;42.034;25.834;2023-05-13T03:56:48;100940.31;;;6.33;97.22
9059;BME280;4564;42.034;25.834;2023-05-13T03:59:14;100954.91;;;6.21;98.54
9059;BME280;4564;42.034;25.834;2023-05-13T04:01:41;100951.91;;;6.44;98.65
9059;BME280;4564;42.034;25.834;2023-05-13T04:04:07;100961.34;;;6.77;98.14
9059;BME280;4564;42.034;25.834;2023-05-13T04:06:34;100960.63;;;6.84;96.80
9059;BME280;4564;42.034;25.834;2023-05-13T04:09:01;100969.06;;;7.08;97.21
9059;BME280;4564;42.034;25.834;2023-05-13T04:11:28;100970.22;;;7.33;96.70
9059;BME280;4564;42.034;25.834;2023-05-13T04:13:56;100972.34;;;7.57;94.73
9059;BME280;4564;42.034;25.834;2023-05-13T04:16:23;100975.09;;;7.75;94.41
9059;BME280;4564;42.034;25.834;2023-05-13T04:18:50;100973.41;;;7.91;93.91
9059;BME280;4564;42.034;25.834;2023-05-13T04:21:17;100973.06;;;8.04;93.76
9059;BME280;4564;42.034;25.834;2023-05-13T04:23:43;100978.84;;;8.09;93.14
9059;BME280;4564;42.034;25.834;2023-05-13T04:26:10;100981.84;;;8.24;93.31
9059;BME280;4564;42.034;25.834;2023-05-13T04:28:37;100978.22;;;8.33;93.78
9059;BME280;4564;42.034;25.834;2023-05-13T04:31:05;100967.97;;;8.36;93.36
9059;BME280;4564;42.034;25.834;2023-05-13T04:33:32;100959.28;;;8.33;92.97
9059;BME280;4564;42.034;25.834;2023-05-13T04:35:58;100959.63;;;8.30;93.86
9059;BME280;4564;42.034;25.834;2023-05-13T04:38:25;100948.56;;;8.41;93.66
9059;BME280;4564;42.034;25.834;2023-05-13T04:40:51;100959.44;;;8.49;93.33
9059;BME280;4564;42.034;25.834;2023-05-13T04:43:19;100960.69;;;8.01;95.89
9059;BME280;4564;42.034;25.834;2023-05-13T04:45:46;100961.97;;;8.15;96.68
9059;BME280;4564;42.034;25.834;2023-05-13T04:48:14;100960.06;;;8.43;95.18
9059;BME280;4564;42.034;25.834;2023-05-13T04:50:43;100958.50;;;8.58;95.08
9059;BME280;4564;42.034;25.834;2023-05-13T04:53:10;100973.03;;;8.83;94.35
9059;BME280;4564;42.034;25.834;2023-05-13T04:55:36;100968.25;;;8.77;94.56
9059;BME280;4564;42.034;25.834;2023-05-13T04:58:03;100973.50;;;8.78;95.76
9059;BME280;4564;42.034;25.834;2023-05-13T05:00:29;100978.56;;;8.73;96.76
9059;BME280;4564;42.034;25.834;2023-05-13T05:02:56;100973.66;;;9.03;96.20
9059;BME280;4564;42.034;25.834;2023-05-13T05:05:24;100975.16;;;9.31;93.33
9059;BME280;4564;42.034;25.834;2023-05-13T05:07:51;100976.56;;;9.43;92.90
9059;BME280;4564;42.034;25.834;2023-05-13T05:10:17;100978.50;;;9.67;92.35
9059;BME280;4564;42.034;25.834;2023-05-13T05:12:44;100974.88;;;9.42;93.49
9059;BME280;4564;42.034;25.834;2023-05-13T05:15:10;100990.84;;;9.61;93.47
9059;BME280;4564;42.034;25.834;2023-05-13T05:17:40;100989.22;;;9.85;91.94
9059;BME280;4564;42.034;25.834;2023-05-13T05:20:07;100995.19;;;9.96;91.29
9059;BME280;4564;42.034;25.834;2023-05-13T05:22:35;100993.19;;;10.15;91.15
9059;BME280;4564;42.034;25.834;2023-05-13T05:25:01;100994.25;;;10.30;90.61
9059;BME280;4564;42.034;25.834;2023-05-13T05:27:28;100989.50;;;10.32;91.40
9059;BME280;4564;42.034;25.834;2023-05-13T05:29:55;100998.50;;;10.48;90.26
9059;BME280;4564;42.034;25.834;2023-05-13T05:32:21;101003.28;;;10.63;89.32
9059;BME280;4564;42.034;25.834;2023-05-13T05:34:48;101008.00;;;10.77;89.25
9059;BME280;4564;42.034;25.834;2023-05-13T05:37:15;101000.84;;;10.92;88.77
9059;BME280;4564;42.034;25.834;2023-05-13T05:39:43;101011.19;;;10.97;88.84
9059;BME280;4564;42.034;25.834;2023-05-13T05:42:10;101004.06;;;11.04;88.75
9059;BME280;4564;42.034;25.834;2023-05-13T05:44:36;101000.13;;;11.14;89.08
9059;BME280;4564;42.034;25.834;2023-05-13T05:47:03;101003.16;;;11.19;88.52
9059;BME280;4564;42.034;25.834;2023-05-13T05:49:30;100999.41;;;11.28;88.39
9059;BME280;4564;42.034;25.834;2023-05-13T05:51:56;101001.63;;;11.33;91.96
9059;BME280;4564;42.034;25.834;2023-05-13T05:54:23;101010.88;;;11.55;91.09
9059;BME280;4564;42.034;25.834;2023-05-13T05:56:51;101003.97;;;11.83;89.09
9059;BME280;4564;42.034;25.834;2023-05-13T05:59:17;101009.31;;;11.99;87.82
9059;BME280;4564;42.034;25.834;2023-05-13T06:01:44;101011.25;;;11.91;87.12
9059;BME280;4564;42.034;25.834;2023-05-13T06:04:10;101006.50;;;11.85;89.10
9059;BME280;4564;42.034;25.834;2023-05-13T06:06:37;101008.44;;;12.30;86.35
9059;BME280;4564;42.034;25.834;2023-05-13T06:09:04;101009.56;;;12.58;85.27
9059;BME280;4564;42.034;25.834;2023-05-13T06:11:31;101005.53;;;12.91;83.83
9059;BME280;4564;42.034;25.834;2023-05-13T06:13:59;100999.03;;;13.30;83.73
9059;BME280;4564;42.034;25.834;2023-05-13T06:16:25;100999.28;;;14.15;79.07
9059;BME280;4564;42.034;25.834;2023-05-13T06:18:52;100993.31;;;14.68;76.82
9059;BME280;4564;42.034;25.834;2023-05-13T06:21:18;100992.78;;;14.80;76.37
9059;BME280;4564;42.034;25.834;2023-05-13T06:23:45;101001.41;;;15.67;72.01
9059;BME280;4564;42.034;25.834;2023-05-13T06:26:11;100999.66;;;15.52;73.31
9059;BME280;4564;42.034;25.834;2023-05-13T06:28:38;100994.81;;;16.09;72.09
9059;BME280;4564;42.034;25.834;2023-05-13T06:31:06;100997.28;;;16.71;70.36
9059;BME280;4564;42.034;25.834;2023-05-13T06:33:32;100998.63;;;17.72;67.41
9059;BME280;4564;42.034;25.834;2023-05-13T06:35:59;100999.63;;;19.78;60.31
9059;BME280;4564;42.034;25.834;2023-05-13T06:38:26;100992.13;;;21.16;55.51
9059;BME280;4564;42.034;25.834;2023-05-13T06:40:52;100997.34;;;23.22;49.78
9059;BME280;4564;42.034;25.834;2023-05-13T06:43:19;100996.16;;;24.17;46.61
9059;BME280;4564;42.034;25.834;2023-05-13T06:45:46;100986.56;;;24.03;45.13
9059;BME280;4564;42.034;25.834;2023-05-13T06:48:14;100988.94;;;23.72;46.14
9059;BME280;4564;42.034;25.834;2023-05-13T06:50:41;100982.44;;;24.86;44.37
9059;BME280;4564;42.034;25.834;2023-05-13T06:53:07;100980.25;;;26.24;40.22
9059;BME280;4564;42.034;25.834;2023-05-13T06:55:35;101001.13;;;25.27;42.33
9059;BME280;4564;42.034;25.834;2023-05-13T06:58:05;100996.59;;;26.10;40.23
9059;BME280;4564;42.034;25.834;2023-05-13T07:00:32;101010.66;;;26.46;39.14
9059;BME280;4564;42.034;25.834;2023-05-13T07:02:58;101014.03;;;26.68;38.36
9059;BME280;4564;42.034;25.834;2023-05-13T07:05:26;101005.81;;;26.16;40.27
9059;BME280;4564;42.034;25.834;2023-05-13T07:07:53;101007.00;;;26.40;38.40
9059;BME280;4564;42.034;25.834;2023-05-13T07:10:20;100998.63;;;26.25;38.26
9059;BME280;4564;42.034;25.834;2023-05-13T07:12:47;101003.38;;;26.29;39.19
9059;BME280;4564;42.034;25.834;2023-05-13T07:15:13;101013.59;;;26.19;38.15
9059;BME280;4564;42.034;25.834;2023-05-13T07:17:40;101015.06;;;26.31;37.81
9059;BME280;4564;42.034;25.834;2023-05-13T07:20:07;101010.28;;;26.22;37.11
9059;BME280;4564;42.034;25.834;2023-05-13T07:22:35;101018.84;;;26.88;36.74
9059;BME280;4564;42.034;25.834;2023-05-13T07:25:02;101015.88;;;27.99;35.20
9059;BME280;4564;42.034;25.834;2023-05-13T07:27:29;101008.59;;;28.13;34.22
9059;BME280;4564;42.034;25.834;2023-05-13T07:29:55;101008.75;;;27.63;34.99
9059;BME280;4564;42.034;25.834;2023-05-13T07:32:22;101007.31;;;26.49;37.08
9059;BME280;4564;42.034;25.834;2023-05-13T07:34:48;101018.22;;;27.67;32.89
9059;BME280;4564;42.034;25.834;2023-05-13T07:37:15;101014.03;;;27.59;33.12
9059;BME280;4564;42.034;25.834;2023-05-13T07:39:43;101005.38;;;28.40;31.67
9059;BME280;4564;42.034;25.834;2023-05-13T07:42:10;101017.31;;;29.57;29.13
9059;BME280;4564;42.034;25.834;2023-05-13T07:44:36;101017.88;;;28.97;29.17
9059;BME280;4564;42.034;25.834;2023-05-13T07:47:04;101019.09;;;28.81;30.11
9059;BME280;4564;42.034;25.834;2023-05-13T07:49:31;101018.28;;;29.14;29.85
9059;BME280;4564;42.034;25.834;2023-05-13T07:51:57;101013.59;;;29.38;29.71
9059;BME280;4564;42.034;25.834;2023-05-13T07:54:24;101013.81;;;30.61;27.81
9059;BME280;4564;42.034;25.834;2023-05-13T07:56:52;101022.19;;;29.47;28.10
9059;BME280;4564;42.034;25.834;2023-05-13T07:59:19;101018.94;;;28.03;30.94
9059;BME280;4564;42.034;25.834;2023-05-13T08:01:45;101019.84;;;28.47;28.58
9059;BME280;4564;42.034;25.834;2023-05-13T08:04:12;101005.97;;;26.87;30.95
9059;BME280;4564;42.034;25.834;2023-05-13T08:06:38;101009.28;;;25.86;32.48
9059;BME280;4564;42.034;25.834;2023-05-13T08:09:08;101003.53;;;24.82;36.23
9059;BME280;4564;42.034;25.834;2023-05-13T08:11:36;100994.38;;;24.54;37.25
9059;BME280;4564;42.034;25.834;2023-05-13T08:14:04;100992.44;;;24.06;37.63
9059;BME280;4564;42.034;25.834;2023-05-13T08:16:33;100989.13;;;23.88;38.01
9059;BME280;4564;42.034;25.834;2023-05-13T08:18:59;100984.06;;;23.24;39.86
9059;BME280;4564;42.034;25.834;2023-05-13T08:21:26;100981.00;;;23.21;40.20
9059;BME280;4564;42.034;25.834;2023-05-13T08:23:52;100975.53;;;23.26;40.57
9059;BME280;4564;42.034;25.834;2023-05-13T08:26:19;100964.56;;;22.97;40.68
9059;BME280;4564;42.034;25.834;2023-05-13T08:28:46;100968.97;;;22.65;41.71
9059;BME280;4564;42.034;25.834;2023-05-13T08:31:14;100969.56;;;23.00;41.31
9059;BME280;4564;42.034;25.834;2023-05-13T08:33:41;100966.91;;;22.72;42.26
9059;BME280;4564;42.034;25.834;2023-05-13T08:36:10;100969.97;;;22.59;40.68
9059;BME280;4564;42.034;25.834;2023-05-13T08:38:37;100961.31;;;22.39;40.83
9059;BME280;4564;42.034;25.834;2023-05-13T08:41:04;100961.66;;;22.59;40.69
9059;BME280;4564;42.034;25.834;2023-05-13T08:43:31;100962.59;;;21.80;40.36
9059;BME280;4564;42.034;25.834;2023-05-13T08:45:58;100961.09;;;21.49;41.44
9059;BME280;4564;42.034;25.834;2023-05-13T08:48:29;100950.19;;;21.30;40.54
9059;BME280;4564;42.034;25.834;2023-05-13T08:50:56;100943.94;;;20.88;41.94
9059;BME280;4564;42.034;25.834;2023-05-13T08:53:24;100941.66;;;20.97;43.05
9059;BME280;4564;42.034;25.834;2023-05-13T08:55:50;100947.31;;;21.25;42.28
9059;BME280;4564;42.034;25.834;2023-05-13T08:58:17;100947.16;;;21.44;40.64
9059;BME280;4564;42.034;25.834;2023-05-13T09:00:44;100946.56;;;20.95;40.38
9059;BME280;4564;42.034;25.834;2023-05-13T09:03:10;100936.22;;;20.79;41.40
9059;BME280;4564;42.034;25.834;2023-05-13T09:05:39;100937.22;;;20.96;41.96
9059;BME280;4564;42.034;25.834;2023-05-13T09:08:06;100931.31;;;20.81;39.37
9059;BME280;4564;42.034;25.834;2023-05-13T09:10:34;100928.31;;;20.71;39.57
9059;BME280;4564;42.034;25.834;2023-05-13T09:13:01;100929.41;;;20.70;40.32
9059;BME280;4564;42.034;25.834;2023-05-13T09:15:28;100929.47;;;20.51;41.58
9059;BME280;4564;42.034;25.834;2023-05-13T09:17:55;100934.53;;;20.55;42.28
9059;BME280;4564;42.034;25.834;2023-05-13T09:20:23;100937.44;;;20.60;41.81
9059;BME280;4564;42.034;25.834;2023-05-13T09:22:52;100945.13;;;20.81;41.46
9059;BME280;4564;42.034;25.834;2023-05-13T09:25:19;100932.75;;;20.60;40.81
9059;BME280;4564;42.034;25.834;2023-05-13T09:27:50;100934.66;;;20.60;43.02
9059;BME280;4564;42.034;25.834;2023-05-13T09:30:17;100934.31;;;20.79;40.37
9059;BME280;4564;42.034;25.834;2023-05-13T09:32:44;100936.50;;;20.77;40.44
9059;BME280;4564;42.034;25.834;2023-05-13T09:35:29;100932.41;;;20.57;41.53
9059;BME280;4564;42.034;25.834;2023-05-13T09:37:58;100940.38;;;20.35;41.83
9059;BME280;4564;42.034;25.834;2023-05-13T09:40:24;100931.25;;;20.34;42.64
9059;BME280;4564;42.034;25.834;2023-05-13T09:42:55;100932.16;;;20.28;40.51
9059;BME280;4564;42.034;25.834;2023-05-13T09:45:22;100928.03;;;20.19;40.87
9059;BME280;4564;42.034;25.834;2023-05-13T09:47:49;100933.56;;;20.49;41.50
9059;BME280;4564;42.034;25.834;2023-05-13T09:50:17;100932.41;;;20.80;40.17
9059;BME280;4564;42.034;25.834;2023-05-13T09:52:44;100927.91;;;20.44;38.77
9059;BME280;4564;42.034;25.834;2023-05-13T09:55:12;100915.69;;;20.51;40.46
9059;BME280;4564;42.034;25.834;2023-05-13T09:57:39;100906.38;;;20.76;39.88
9059;BME280;4564;42.034;25.834;2023-05-13T10:00:06;100906.28;;;20.82;39.65
9059;BME280;4564;42.034;25.834;2023-05-13T10:02:33;100897.88;;;20.89;38.50
9059;BME280;4564;42.034;25.834;2023-05-13T10:05:00;100899.16;;;20.75;39.49
9059;BME280;4564;42.034;25.834;2023-05-13T10:07:27;100887.44;;;20.56;39.70
9059;BME280;4564;42.034;25.834;2023-05-13T10:09:57;100882.41;;;20.23;40.26
9059;BME280;4564;42.034;25.834;2023-05-13T10:12:25;100887.16;;;20.34;40.67
9059;BME280;4564;42.034;25.834;2023-05-13T10:14:52;100890.38;;;20.31;39.98
9059;BME280;4564;42.034;25.834;2023-05-13T10:17:19;100891.84;;;20.45;38.78
9059;BME280;4564;42.034;25.834;2023-05-13T10:19:47;100897.69;;;20.37;37.74
9059;BME280;4564;42.034;25.834;2023-05-13T10:22:14;100901.94;;;20.22;37.13
9059;BME280;4564;42.034;25.834;2023-05-13T10:24:41;100898.47;;;20.26;37.51
9059;BME280;4564;42.034;25.834;2023-05-13T10:27:08;100891.28;;;20.25;35.12
9059;BME280;4564;42.034;25.834;2023-05-13T10:29:37;100894.97;;;20.19;35.70
9059;BME280;4564;42.034;25.834;2023-05-13T10:32:06;100896.06;;;20.30;35.24
9059;BME280;4564;42.034;25.834;2023-05-13T10:34:33;100892.06;;;20.32;36.04
9059;BME280;4564;42.034;25.834;2023-05-13T10:37:02;100898.47;;;20.26;37.29
9059;BME280;4564;42.034;25.834;2023-05-13T10:39:40;100899.38;;;20.08;33.78
9059;BME280;4564;42.034;25.834;2023-05-13T10:42:23;100895.13;;;19.94;34.29
9059;BME280;4564;42.034;25.834;2023-05-13T10:44:57;100889.00;;;20.22;34.48
9059;BME280;4564;42.034;25.834;2023-05-13T10:47:24;100895.59;;;20.21;34.81
9059;BME280;4564;42.034;25.834;2023-05-13T10:49:51;100898.56;;;20.49;35.71
9059;BME280;4564;42.034;25.834;2023-05-13T10:52:18;100902.59;;;20.35;33.27
9059;BME280;4564;42.034;25.834;2023-05-13T10:54:56;100896.25;;;20.35;33.91
9059;BME280;4564;42.034;25.834;2023-05-13T10:57:26;100889.91;;;20.34;33.28
9059;BME280;4564;42.034;25.834;2023-05-13T11:00:09;100894.94;;;20.37;33.15
9059;BME280;4564;42.034;25.834;2023-05-13T11:02:37;100895.66;;;20.33;34.00
9059;BME280;4564;42.034;25.834;2023-05-13T11:05:04;100903.53;;;20.29;33.60
9059;BME280;4564;42.034;25.834;2023-05-13T11:07:30;100899.41;;;20.20;31.47
9059;BME280;4564;42.034;25.834;2023-05-13T11:09:58;100904.56;;;20.17;29.84
9059;BME280;4564;42.034;25.834;2023-05-13T11:12:24;100904.22;;;20.13;31.72
9059;BME280;4564;42.034;25.834;2023-05-13T11:14:54;100893.44;;;20.23;31.16
9059;BME280;4564;42.034;25.834;2023-05-13T11:17:22;100889.91;;;20.34;30.75
9059;BME280;4564;42.034;25.834;2023-05-13T11:19:49;100878.63;;;20.36;31.29
9059;BME280;4564;42.034;25.834;2023-05-13T11:22:18;100884.75;;;20.38;32.33
9059;BME280;4564;42.034;25.834;2023-05-13T11:24:45;100881.94;;;20.26;31.52
9059;BME280;4564;42.034;25.834;2023-05-13T11:27:13;100887.72;;;20.36;30.97
9059;BME280;4564;42.034;25.834;2023-05-13T11:29:46;100890.38;;;20.31;29.28
9059;BME280;4564;42.034;25.834;2023-05-13T11:32:13;100881.34;;;20.24;29.43
9059;BME280;4564;42.034;25.834;2023-05-13T11:34:49;100876.66;;;20.13;30.19
9059;BME280;4564;42.034;25.834;2023-05-13T11:37:16;100875.22;;;20.22;31.06
9059;BME280;4564;42.034;25.834;2023-05-13T11:39:43;100876.13;;;20.34;31.64
9059;BME280;4564;42.034;25.834;2023-05-13T11:42:10;100878.88;;;20.34;31.51
9059;BME280;4564;42.034;25.834;2023-05-13T11:44:43;100879.13;;;20.44;30.56
9059;BME280;4564;42.034;25.834;2023-05-13T11:47:10;100879.38;;;20.43;30.75
9059;BME280;4564;42.034;25.834;2023-05-13T11:49:37;100881.16;;;20.49;30.27
9059;BME280;4564;42.034;25.834;2023-05-13T11:52:06;100885.97;;;20.53;31.29
9059;BME280;4564;42.034;25.834;2023-05-13T11:54:39;100887.41;;;20.44;33.48
9059;BME280;4564;42.034;25.834;2023-05-13T11:57:13;100890.75;;;20.46;33.74
9059;BME280;4564;42.034;25.834;2023-05-13T11:59:39;100875.50;;;20.32;34.55
9059;BME280;4564;42.034;25.834;2023-05-13T12:02:06;100880.53;;;20.35;33.37
9059;BME280;4564;42.034;25.834;2023-05-13T12:04:32;100879.34;;;20.31;32.76
9059;BME280;4564;42.034;25.834;2023-05-13T12:06:59;100876.00;;;20.52;33.06
9059;BME280;4564;42.034;25.834;2023-05-13T12:09:27;100878.16;;;20.39;33.48
9059;BME280;4564;42.034;25.834;2023-05-13T12:11:53;100865.94;;;20.46;33.29
9059;BME280;4564;42.034;25.834;2023-05-13T12:14:20;100863.19;;;20.58;33.69
9059;BME280;4564;42.034;25.834;2023-05-13T12:16:47;100856.22;;;20.44;33.57
9059;BME280;4564;42.034;25.834;2023-05-13T12:19:14;100856.34;;;20.37;31.76
9059;BME280;4564;42.034;25.834;2023-05-13T12:21:41;100861.06;;;20.30;32.01
9059;BME280;4564;42.034;25.834;2023-05-13T12:24:18;100845.56;;;20.47;32.72
9059;BME280;4564;42.034;25.834;2023-05-13T12:26:46;100852.84;;;20.42;32.65
9059;BME280;4564;42.034;25.834;2023-05-13T12:29:13;100852.63;;;20.43;31.79
9059;BME280;4564;42.034;25.834;2023-05-13T12:31:40;100850.34;;;20.64;32.03
9059;BME280;4564;42.034;25.834;2023-05-13T12:34:07;100848.69;;;20.74;32.16
9059;BME280;4564;42.034;25.834;2023-05-13T12:36:35;100838.59;;;20.80;32.11
9059;BME280;4564;42.034;25.834;2023-05-13T12:39:03;100840.28;;;20.81;32.17
9059;BME280;4564;42.034;25.834;2023-05-13T12:41:31;100829.97;;;20.88;32.95
9059;BME280;4564;42.034;25.834;2023-05-13T12:44:00;100835.72;;;20.98;32.52
9059;BME280;4564;42.034;25.834;2023-05-13T12:46:27;100827.66;;;20.97;31.98
9059;BME280;4564;42.034;25.834;2023-05-13T12:48:54;100833.53;;;21.00;30.48
9059;BME280;4564;42.034;25.834;2023-05-13T12:51:21;100824.34;;;20.83;31.42
9059;BME280;4564;42.034;25.834;2023-05-13T12:53:48;100822.53;;;20.77;31.31
9059;BME280;4564;42.034;25.834;2023-05-13T12:56:14;100822.88;;;20.69;31.75
9059;BME280;4564;42.034;25.834;2023-05-13T12:58:41;100817.34;;;20.92;31.82
9059;BME280;4564;42.034;25.834;2023-05-13T13:01:09;100816.06;;;20.83;32.07
9059;BME280;4564;42.034;25.834;2023-05-13T13:03:35;100769.91;;;20.67;32.14
9059;BME280;4564;42.034;25.834;2023-05-13T13:06:02;100813.88;;;20.85;32.58